KCOT/COT METAR and TAF weather

Enter ICAO airport designator
Station Type Date Time Source
KCOT METAR 2019/08/21 21:53 UTC NOAA

KCOT 212153Z AUTO 17008G17KT 10SM FEW090 38/15 A2988 RMK AO2 SLP110 T03830150


Station Type Date Time Source
KCOT Decoded METAR 2019/08/21 21:53 UTC NOAA

Station name not available
Aug 21, 2019 - 05:53 PM EDT / 2019.08.21 2153 UTC
Wind: from the S (170 degrees) at 9 MPH (8 KT) gusting to 20 MPH (17 KT):0
Visibility: 10 mile(s):0
Sky conditions: mostly clear
Temperature: 100.9 F (38.3 C)
Heat index: 100.9 F (38.3 C):1
Dew Point: 59.0 F (15.0 C)
Relative Humidity: 25%
Pressure (altimeter): 29.88 in. Hg (1011 hPa)
ob: KCOT 212153Z AUTO 17008G17KT 10SM FEW090 38/15 A2988 RMK AO2 SLP110 T03830150
cycle: 22

Station Type Date Time Source
KCOT TAF 2019/08/21 18:27 UTC NOAA

TAF KCOT 211727Z 2118/2218 14012KT P6SM FEW050
FM212200 15013G22KT P6SM FEW090
FM220900 13007KT P6SM FEW025

Example: see airport list